Cleveland, Ohio
Traffic Map
Current Weather Conditions
Cleveland, Ohio
Clear
Clear
89°
Feels Like: 91°
Wind Chill: 89° Ceiling: Unl
Heat Index: 91° Visibility: 10mi
Dew Point: 66° Wind: 8mph
Humidity: 46% Direction: 230° (SW)
Pressure: 30.03in Gusts: 0mph
Raw Report DataKBKL 281953Z 23007KT 10SM CLR 32/19 A3003 RMK AO2 SLP162 T03170189
Traffic Incident Summary
Active as of:
Severity:
Category:
InformationThere was an issue retrieving the traffic information for this location. Please try a different location or try again shortly.
Advertisements
Track Severe Weather on mobile